Detall de PIREP

Printer-friendly versionPDF version

[2013/05/01 07:07:00]
Flight IATA:CT2107
Pilot Number:044
Company ICAO:CAT
Aircraft Type:AT72/F
PAX:45
Departing Airport: LEMD
Destination Airport: LEVC
Alternate Airport:LEAB
Online: VATSIM
Route:NANDO M871 ABOSI
Flight Level:F160
No Slew and time accel
No pause
Crash detect
Detect pilot in Cockpit between each 30 and 45 minutes
07:07 Zero fuel Weight: 39663 Lbs, Fuel Weight: 3214 Lbs
07:07 VATSIM:LEMD 010700Z VRB02KT 9000 FEW006 BKN042 08/08 Q1016 NOSIG
07:07 VATSIM:LEVC 010700Z 00000KT 9999 FEW020 10/08 Q1017 NOSIG
07:08 VOICE CATALONIAN
07:11 Parking Brakes off
07:21 Take-off
07:21 Take off Weight: 42777 Lbs
07:21 Wind: 270º @ 002 Knots Heading: 358º
07:21 POS N40º 30´ 48´´ W003º 33´ 33´´
07:21 Gear Up: 140 Knots
07:21 Flaps:1 at 140 Knots
07:23 Flaps:0 at 139 Knots
07:28 TOC
07:28 Fuel Weight: 2848 Lb
07:36 Wind:321º@001 Knots Heading: 102º Ground Speed:279 Knots Altitude 16072 ft
07:51 Wind:307º@002 Knots Heading: 106º Ground Speed: 271 Knots Altitude 16095 ft
07:52 TOD
07:52 Fuel Weight: 2198 Lb
08:03 Gear Down: 161 Knots
08:03 Flaps:1 at 148 Knots
08:06 Wind:323º@000 Knots Heading: 115º Ground Speed: 139 Knots Altitude 1765 ft
08:06 Flaps:2 at 132 Knots
08:08 TouchDown:Rate -141 ft/min Speed: 98 Knots
08:08 VATSIM:LEVC 010800Z VRB02KT 9999 FEW020 13/09 Q1017 NOSIG
08:08 Land
08:08 Wind:327º@002 Knots
08:08 Heading: 115º
08:08 Flight Duration: 00:47
08:08 Landing Weight: 41698 Lbs
08:08 POS N39º 29´ 28´´ W000º 29´ 13´´
08:12 Parking brakes on
08:12 Block to Block Duration: 01:01
08:12 Final Fuel: 2010 Lbls
08:12 Spent Fuel: 1203 Lbls
08:12 Flight Length: 181 NM
08:12 TOD Land Length: 52 NM

Exportar CSV

Powered by Drupal - Modified by Danger4k